Time;durP1;ratioP1;P1;durP2;ratioP2;P2;SDS_P1;SDS_P2;PMS_P1;PMS_P2;Temp;Humidity;BMP_temperature;BMP_pressure;BME280_temperature;BME280_humidity;BME280_pressure;Samples;Min_cycle;Max_cycle;Signal;HPM_P1;HPM_P2
2023/09/24 00:02:10;;;;;;;13.18;3.75;;;12.50;99.90;;;;;;5062353;28;20055;-70
2023/09/24 00:04:37;;;;;;;12.80;4.10;;;12.40;99.90;;;;;;4996638;28;246048;-71
2023/09/24 00:07:05;;;;;;;14.07;4.00;;;12.30;99.90;;;;;;5063746;28;20062;-71
2023/09/24 00:09:31;;;;;;;13.50;4.00;;;12.30;99.90;;;;;;5015874;28;245757;-71
2023/09/24 00:11:58;;;;;;;11.65;3.88;;;12.30;99.90;;;;;;5055596;28;20048;-71
2023/09/24 00:14:30;;;;;;;12.70;4.15;;;12.20;99.90;;;;;;5001276;28;20053;-71
2023/09/24 00:16:57;;;;;;;10.55;3.80;;;12.20;99.90;;;;;;5062277;28;20460;-71
2023/09/24 00:19:26;;;;;;;12.10;3.67;;;12.20;99.90;;;;;;5007521;28;39790;-71
2023/09/24 00:21:52;;;;;;;10.95;4.03;;;12.10;99.90;;;;;;5063699;28;20051;-70
2023/09/24 00:24:18;;;;;;;11.93;4.57;;;12.10;99.90;;;;;;5015187;28;223236;-71
2023/09/24 00:26:45;;;;;;;13.65;4.45;;;12.00;99.90;;;;;;5054102;28;20067;-71
2023/09/24 00:29:12;;;;;;;10.88;4.05;;;12.00;99.90;;;;;;5006500;28;205682;-71
2023/09/24 00:31:38;;;;;;;14.68;4.45;;;12.00;99.90;;;;;;5055888;28;20518;-72
2023/09/24 00:34:04;;;;;;;13.88;4.53;;;12.00;99.90;;;;;;5013949;28;109384;-72
2023/09/24 00:36:32;;;;;;;13.00;4.88;;;12.00;99.90;;;;;;5053531;28;20051;-71
2023/09/24 00:38:59;;;;;;;16.40;5.25;;;11.90;99.90;;;;;;5013510;28;158619;-71
2023/09/24 00:41:26;;;;;;;17.85;4.50;;;11.90;99.90;;;;;;5057692;28;20071;-71
2023/09/24 00:43:52;;;;;;;12.02;4.60;;;11.90;99.90;;;;;;5011633;28;129460;-71
2023/09/24 00:46:21;;;;;;;14.35;5.25;;;11.90;99.90;;;;;;5058171;28;20049;-71
2023/09/24 00:48:49;;;;;;;15.38;4.78;;;12.00;99.90;;;;;;5019292;28;38240;-71
2023/09/24 00:51:23;;;;;;;13.98;4.53;;;11.90;99.90;;;;;;5055062;28;20052;-71
2023/09/24 00:53:53;;;;;;;11.15;4.18;;;11.90;99.90;;;;;;4995139;28;91262;-71
2023/09/24 00:56:23;;;;;;;13.82;5.32;;;11.90;99.90;;;;;;5058109;28;20056;-71
2023/09/24 00:58:53;;;;;;;17.17;4.93;;;11.90;99.90;;;;;;5014954;28;117034;-71
2023/09/24 01:01:20;;;;;;;12.98;4.63;;;11.90;99.90;;;;;;5051820;28;20569;-71
2023/09/24 01:03:49;;;;;;;13.13;4.70;;;12.00;99.90;;;;;;5020419;28;108048;-72
2023/09/24 01:06:17;;;;;;;13.43;4.13;;;11.90;99.90;;;;;;5061143;28;20072;-71
2023/09/24 01:08:43;;;;;;;11.02;4.15;;;11.90;99.90;;;;;;5010802;28;30540;-72
2023/09/24 01:11:10;;;;;;;12.63;4.30;;;11.90;99.90;;;;;;5055241;28;20087;-71
2023/09/24 01:13:44;;;;;;;11.38;3.88;;;11.90;99.90;;;;;;5008622;28;164829;-71
2023/09/24 01:16:11;;;;;;;10.48;4.10;;;11.90;99.90;;;;;;5056540;28;20056;-71
2023/09/24 01:18:44;;;;;;;11.40;4.45;;;11.90;99.90;;;;;;5012235;28;20060;-72
2023/09/24 01:21:12;;;;;;;16.63;5.03;;;12.00;99.90;;;;;;5053709;28;20044;-71
2023/09/24 01:23:40;;;;;;;14.40;4.60;;;12.00;99.90;;;;;;5010729;28;67079;-71
2023/09/24 01:26:08;;;;;;;12.35;4.43;;;12.00;99.90;;;;;;5056935;28;20052;-71
2023/09/24 01:28:34;;;;;;;11.23;4.50;;;12.00;99.90;;;;;;5009323;28;171130;-71
2023/09/24 01:31:00;;;;;;;13.95;4.40;;;12.00;99.90;;;;;;5036967;28;20052;-72
2023/09/24 01:33:26;;;;;;;12.65;4.40;;;12.00;99.90;;;;;;5010795;28;204380;-70
2023/09/24 01:35:52;;;;;;;12.65;4.72;;;12.00;99.90;;;;;;5051485;28;20068;-72
2023/09/24 01:38:19;;;;;;;14.75;5.38;;;11.90;99.90;;;;;;5011703;28;148362;-72
2023/09/24 01:40:45;;;;;;;14.18;4.80;;;11.90;99.90;;;;;;5050441;28;20052;-71
2023/09/24 01:43:14;;;;;;;13.98;5.28;;;11.90;99.90;;;;;;5010607;28;86700;-71
2023/09/24 01:45:40;;;;;;;14.02;5.30;;;11.90;99.90;;;;;;5035373;28;20247;-70
2023/09/24 01:48:07;;;;;;;12.25;5.38;;;11.90;99.90;;;;;;5012250;28;156510;-71
2023/09/24 01:50:36;;;;;;;12.82;6.07;;;11.90;99.90;;;;;;5050926;28;20056;-71
2023/09/24 01:53:04;;;;;;;14.48;6.90;;;11.80;99.90;;;;;;5003998;28;179743;-72
2023/09/24 01:55:31;;;;;;;18.45;7.03;;;11.90;99.90;;;;;;5044678;28;20060;-71
2023/09/24 01:57:59;;;;;;;17.33;6.60;;;11.80;99.90;;;;;;5018251;28;27821;-71
2023/09/24 02:00:25;;;;;;;13.77;6.85;;;11.80;99.90;;;;;;5055781;28;20052;-72
2023/09/24 02:02:59;;;;;;;15.23;7.03;;;11.80;99.90;;;;;;5014057;28;184031;-71
2023/09/24 02:05:32;;;;;;;20.08;8.23;;;11.80;99.90;;;;;;5048239;28;20044;-72
2023/09/24 02:07:58;;;;;;;17.75;8.15;;;11.80;99.90;;;;;;5014896;28;157502;-72
2023/09/24 02:10:25;;;;;;;19.00;8.63;;;11.80;99.90;;;;;;5060595;28;20511;-71
2023/09/24 02:12:52;;;;;;;22.63;9.52;;;11.80;99.90;;;;;;5011428;28;240757;-72
2023/09/24 02:15:19;;;;;;;20.73;9.43;;;11.80;99.90;;;;;;5060670;28;20063;-72
2023/09/24 02:17:48;;;;;;;18.42;8.43;;;11.80;99.90;;;;;;5016689;28;20056;-71
2023/09/24 02:20:27;;;;;;;18.73;8.40;;;11.80;99.90;;;;;;5040174;28;20067;-72
2023/09/24 02:22:56;;;;;;;14.23;7.80;;;11.80;99.90;;;;;;5011666;28;158599;-72
2023/09/24 02:25:27;;;;;;;19.20;8.13;;;11.70;99.90;;;;;;5058921;28;20047;-72
2023/09/24 02:27:53;;;;;;;16.17;8.15;;;11.70;99.90;;;;;;5013389;28;78804;-72
2023/09/24 02:30:21;;;;;;;15.55;7.80;;;11.70;99.90;;;;;;5042908;28;20045;-72
2023/09/24 02:32:47;;;;;;;15.65;7.88;;;11.60;99.90;;;;;;5017474;28;51265;-72
2023/09/24 02:35:14;;;;;;;14.63;7.88;;;11.60;99.90;;;;;;5032696;28;20060;-72
2023/09/24 02:37:45;;;;;;;16.33;8.18;;;11.60;99.90;;;;;;5031601;28;20048;-71
2023/09/24 02:40:22;;;;;;;13.00;7.43;;;11.50;99.90;;;;;;5028217;28;20167;-71
2023/09/24 02:42:51;;;;;;;19.02;7.85;;;11.50;99.90;;;;;;5012940;28;166565;-71
2023/09/24 02:45:17;;;;;;;15.90;8.23;;;11.40;99.90;;;;;;5024385;28;20045;-71
2023/09/24 02:47:45;;;;;;;17.02;8.05;;;11.40;99.90;;;;;;5015797;28;107474;-70
2023/09/24 02:50:15;;;;;;;16.20;7.93;;;11.40;99.90;;;;;;5056076;28;20065;-70
2023/09/24 02:52:42;;;;;;;16.88;7.10;;;11.40;99.90;;;;;;5028077;28;20057;-71
2023/09/24 02:55:16;;;;;;;15.50;6.97;;;11.30;99.90;;;;;;5007569;28;119589;-71
2023/09/24 02:57:44;;;;;;;15.73;7.70;;;11.20;99.90;;;;;;5016685;28;162822;-70
2023/09/24 03:00:16;;;;;;;16.50;8.05;;;11.20;99.90;;;;;;5052885;28;20044;-71
2023/09/24 03:02:42;;;;;;;13.20;6.95;;;11.10;99.90;;;;;;5018513;28;154100;-69
2023/09/24 03:05:11;;;;;;;14.38;7.78;;;11.10;99.90;;;;;;5054472;28;20041;-72
2023/09/24 03:07:40;;;;;;;18.90;8.25;;;11.10;99.90;;;;;;5047318;28;20044;-70
2023/09/24 03:10:13;;;;;;;15.40;8.32;;;11.10;99.90;;;;;;5024202;28;146391;-71
2023/09/24 03:12:40;;;;;;;15.85;9.10;;;11.00;99.90;;;;;;5039595;28;20529;-70
2023/09/24 03:15:10;;;;;;;14.60;8.48;;;11.10;99.90;;;;;;5032864;28;20063;-71
2023/09/24 03:17:37;;;;;;;17.83;9.88;;;11.00;99.90;;;;;;5046817;28;20037;-70
2023/09/24 03:20:14;;;;;;;16.08;8.73;;;11.00;99.90;;;;;;5027112;28;20134;-71
2023/09/24 03:22:46;;;;;;;18.08;9.50;;;11.00;99.90;;;;;;5035215;28;20064;-71
2023/09/24 03:25:13;;;;;;;14.73;8.50;;;11.00;99.90;;;;;;5018754;28;20056;-72
2023/09/24 03:27:39;;;;;;;14.88;8.75;;;11.00;99.90;;;;;;5035297;28;20052;-70
2023/09/24 03:30:14;;;;;;;16.60;8.73;;;11.00;99.90;;;;;;5034815;28;137996;-71
2023/09/24 03:32:41;;;;;;;17.17;9.25;;;11.00;99.90;;;;;;5029285;28;20068;-70
2023/09/24 03:35:10;;;;;;;15.85;8.38;;;11.00;99.90;;;;;;5040355;28;20044;-71
2023/09/24 03:37:43;;;;;;;19.63;9.05;;;11.00;99.90;;;;;;5046863;28;20056;-71
2023/09/24 03:40:28;;;;;;;16.38;9.32;;;11.00;99.90;;;;;;4993699;28;20239;-71
2023/09/24 03:42:55;;;;;;;15.77;9.23;;;11.00;99.90;;;;;;5011835;28;215582;-71
2023/09/24 03:45:25;;;;;;;17.08;8.95;;;11.00;99.90;;;;;;5053781;28;20130;-72
2023/09/24 03:47:52;;;;;;;14.90;8.30;;;10.90;99.90;;;;;;5017548;28;225075;-72
2023/09/24 03:50:18;;;;;;;16.60;7.95;;;10.90;99.90;;;;;;5061589;28;20412;-72
2023/09/24 03:52:46;;;;;;;19.52;8.90;;;10.90;99.90;;;;;;5022756;28;54810;-70
2023/09/24 03:55:15;;;;;;;17.30;8.38;;;10.90;99.90;;;;;;5031657;28;20470;-71
2023/09/24 03:57:42;;;;;;;15.93;8.25;;;10.90;99.90;;;;;;5021728;28;209849;-69
2023/09/24 04:00:21;;;;;;;15.00;7.80;;;10.80;99.90;;;;;;5071376;28;20048;-71
2023/09/24 04:02:49;;;;;;;15.68;7.82;;;10.80;99.90;;;;;;5012572;28;241844;-70
2023/09/24 04:05:17;;;;;;;16.08;8.45;;;10.80;99.90;;;;;;5054681;28;20059;-71
2023/09/24 04:07:49;;;;;;;18.77;8.70;;;10.80;99.90;;;;;;5023000;28;20041;-70
2023/09/24 04:10:16;;;;;;;16.55;7.85;;;10.70;99.90;;;;;;5072970;28;20056;-70
2023/09/24 04:12:43;;;;;;;15.23;7.85;;;10.70;99.90;;;;;;5025778;28;95716;-70
2023/09/24 04:15:10;;;;;;;18.13;8.27;;;10.70;99.90;;;;;;5044520;28;20509;-71
2023/09/24 04:17:39;;;;;;;16.17;7.82;;;10.60;99.90;;;;;;5054123;28;20053;-71
2023/09/24 04:20:07;;;;;;;15.20;7.80;;;10.60;99.90;;;;;;5017650;28;20059;-71
2023/09/24 04:22:34;;;;;;;22.13;8.43;;;10.60;99.90;;;;;;5062596;28;20608;-70
2023/09/24 04:25:00;;;;;;;15.32;7.90;;;10.60;99.90;;;;;;5028955;28;20052;-70
2023/09/24 04:27:26;;;;;;;17.50;7.30;;;10.60;99.90;;;;;;5063563;28;20059;-70
2023/09/24 04:29:52;;;;;;;14.65;8.15;;;10.50;99.90;;;;;;5016945;28;111850;-72
2023/09/24 04:32:18;;;;;;;16.75;8.25;;;10.50;99.90;;;;;;5062001;28;20525;-71
2023/09/24 04:34:45;;;;;;;18.05;8.27;;;10.50;99.90;;;;;;4995170;28;250766;-71
2023/09/24 04:37:13;;;;;;;16.58;8.02;;;10.50;99.90;;;;;;5063221;28;20060;-70
2023/09/24 04:39:39;;;;;;;13.98;8.38;;;10.50;99.90;;;;;;5004151;28;221760;-71
2023/09/24 04:42:06;;;;;;;19.08;9.05;;;10.50;99.90;;;;;;5059482;28;20507;-71
2023/09/24 04:44:32;;;;;;;16.88;8.18;;;10.50;99.90;;;;;;5004753;28;170024;-71
2023/09/24 04:46:58;;;;;;;14.23;7.47;;;10.50;99.90;;;;;;5061335;28;20056;-72
2023/09/24 04:49:24;;;;;;;16.17;8.27;;;10.40;99.90;;;;;;5002725;28;161409;-71
2023/09/24 04:51:50;;;;;;;16.35;8.32;;;10.40;99.90;;;;;;5058560;28;20540;-71
2023/09/24 04:54:16;;;;;;;17.95;9.05;;;10.40;99.90;;;;;;4983508;28;221244;-71
2023/09/24 04:56:42;;;;;;;15.30;8.05;;;10.40;99.90;;;;;;5056275;28;20049;-71
2023/09/24 04:59:12;;;;;;;17.98;8.57;;;10.40;99.90;;;;;;5012934;28;179880;-70
2023/09/24 05:01:38;;;;;;;15.43;7.97;;;10.30;99.90;;;;;;5054578;28;20061;-71
2023/09/24 05:04:04;;;;;;;23.15;8.70;;;10.30;99.90;;;;;;5006712;28;163447;-71
2023/09/24 05:06:32;;;;;;;19.08;8.02;;;10.40;99.90;;;;;;5049425;28;20052;-71
2023/09/24 05:08:58;;;;;;;19.77;8.50;;;10.30;99.90;;;;;;5018003;28;197154;-70
2023/09/24 05:11:24;;;;;;;14.45;7.72;;;10.30;99.90;;;;;;5061173;28;20056;-71
2023/09/24 05:13:50;;;;;;;20.05;8.50;;;10.30;99.90;;;;;;5006720;28;59300;-72
2023/09/24 05:16:16;;;;;;;23.38;8.80;;;10.30;99.90;;;;;;5054043;28;20530;-71
2023/09/24 05:18:42;;;;;;;20.10;8.65;;;10.30;99.90;;;;;;5015418;28;66365;-71
2023/09/24 05:21:17;;;;;;;15.18;7.88;;;10.30;99.90;;;;;;5056516;28;20056;-70
2023/09/24 05:23:44;;;;;;;16.00;8.27;;;10.30;99.90;;;;;;5004237;28;187981;-71
2023/09/24 05:26:14;;;;;;;16.08;8.27;;;10.20;99.90;;;;;;5052109;28;20438;-71
2023/09/24 05:28:41;;;;;;;19.77;8.67;;;10.20;99.90;;;;;;5015351;28;169514;-70
2023/09/24 05:31:08;;;;;;;20.83;8.18;;;10.20;99.90;;;;;;5061349;28;20052;-71
2023/09/24 05:33:34;;;;;;;20.50;8.82;;;10.20;99.90;;;;;;5011131;28;159547;-71
2023/09/24 05:36:00;;;;;;;18.08;8.43;;;10.20;99.90;;;;;;5056345;28;20056;-71
2023/09/24 05:38:29;;;;;;;16.70;8.43;;;10.20;99.90;;;;;;5018400;28;40935;-70
2023/09/24 05:40:56;;;;;;;17.73;8.40;;;10.20;99.90;;;;;;5061336;28;20419;-71
2023/09/24 05:43:22;;;;;;;14.75;8.48;;;10.20;99.90;;;;;;5013947;28;23528;-71
2023/09/24 05:45:51;;;;;;;17.45;8.63;;;10.20;99.90;;;;;;5047253;28;20466;-71
2023/09/24 05:48:18;;;;;;;17.23;8.88;;;10.20;99.90;;;;;;5014805;28;32421;-71
2023/09/24 05:50:45;;;;;;;18.70;8.60;;;10.20;99.90;;;;;;5040278;28;20058;-71
2023/09/24 05:53:12;;;;;;;18.92;8.88;;;10.30;99.90;;;;;;5000243;28;131484;-71
2023/09/24 05:55:39;;;;;;;18.25;9.15;;;10.20;99.90;;;;;;5047168;28;20055;-71
2023/09/24 05:58:06;;;;;;;19.48;8.85;;;10.30;99.90;;;;;;5019496;28;60511;-71
2023/09/24 06:00:36;;;;;;;19.13;8.85;;;10.30;99.90;;;;;;5064201;28;20056;-70
2023/09/24 06:03:02;;;;;;;19.38;8.40;;;10.30;99.90;;;;;;5007550;28;262240;-71
2023/09/24 06:05:28;;;;;;;18.23;8.82;;;10.30;99.90;;;;;;5040041;28;20048;-71
2023/09/24 06:07:55;;;;;;;19.23;9.02;;;10.30;99.90;;;;;;5005227;28;248705;-71
2023/09/24 06:10:23;;;;;;;17.40;9.23;;;10.40;99.90;;;;;;5051642;28;20048;-71
2023/09/24 06:12:49;;;;;;;16.77;8.45;;;10.40;99.90;;;;;;5010860;28;181239;-70
2023/09/24 06:15:17;;;;;;;18.65;9.02;;;10.40;99.90;;;;;;5057971;28;20491;-72
2023/09/24 06:17:43;;;;;;;21.35;9.43;;;10.50;99.90;;;;;;5013604;28;189075;-69
2023/09/24 06:20:10;;;;;;;19.98;9.13;;;10.50;99.90;;;;;;5034128;28;20060;-70
2023/09/24 06:22:37;;;;;;;18.45;8.93;;;10.50;99.90;;;;;;5048438;28;20071;-69
2023/09/24 06:25:03;;;;;;;16.63;8.40;;;10.50;99.90;;;;;;4997862;28;20051;-70
2023/09/24 06:27:29;;;;;;;16.60;9.07;;;10.50;99.90;;;;;;5050438;28;20542;-71
2023/09/24 06:29:56;;;;;;;21.60;9.00;;;10.60;99.90;;;;;;5000771;28;259589;-72
2023/09/24 06:32:22;;;;;;;18.48;8.77;;;10.60;99.90;;;;;;5056519;28;20499;-71
2023/09/24 06:34:48;;;;;;;17.38;8.80;;;10.70;99.90;;;;;;5024512;28;56813;-69
2023/09/24 06:37:15;;;;;;;22.25;9.75;;;10.70;99.90;;;;;;5056852;28;20697;-71
2023/09/24 06:39:42;;;;;;;18.77;9.27;;;10.80;99.90;;;;;;5019036;28;215700;-70
2023/09/24 06:42:08;;;;;;;22.35;9.02;;;10.80;99.90;;;;;;5058751;28;20422;-70
2023/09/24 06:44:34;;;;;;;18.63;9.35;;;10.90;99.90;;;;;;5012431;28;213481;-70
2023/09/24 06:47:00;;;;;;;16.70;8.93;;;11.00;99.90;;;;;;5054046;28;20060;-71
2023/09/24 06:49:27;;;;;;;18.75;8.15;;;11.10;99.90;;;;;;5007016;28;198401;-71
2023/09/24 06:51:53;;;;;;;17.00;8.48;;;11.10;99.90;;;;;;5060489;28;20049;-71
2023/09/24 06:54:20;;;;;;;19.48;8.60;;;11.20;99.90;;;;;;4987903;28;177923;-71
2023/09/24 06:56:46;;;;;;;18.10;8.40;;;11.30;99.90;;;;;;5051229;28;20060;-70
2023/09/24 06:59:12;;;;;;;18.58;8.65;;;11.30;99.90;;;;;;5008394;28;84453;-70
2023/09/24 07:01:38;;;;;;;18.40;9.23;;;11.40;99.90;;;;;;5051817;28;20513;-70
2023/09/24 07:04:05;;;;;;;17.48;8.43;;;11.40;99.90;;;;;;4995025;28;198227;-71
2023/09/24 07:06:32;;;;;;;15.15;8.05;;;11.50;99.90;;;;;;5054605;28;20044;-70
2023/09/24 07:08:58;;;;;;;17.83;8.32;;;11.60;99.90;;;;;;5018762;28;28172;-70
2023/09/24 07:11:34;;;;;;;16.65;7.97;;;11.60;99.90;;;;;;5055279;28;20434;-70
2023/09/24 07:14:01;;;;;;;18.20;8.00;;;11.70;99.90;;;;;;5014932;28;87322;-70
2023/09/24 07:16:28;;;;;;;15.77;7.95;;;11.60;99.90;;;;;;5056286;28;20065;-70
2023/09/24 07:18:56;;;;;;;15.57;8.27;;;11.70;99.90;;;;;;4997655;28;105573;-71
2023/09/24 07:21:26;;;;;;;17.45;7.93;;;11.70;99.90;;;;;;5050047;28;20056;-71
2023/09/24 07:23:56;;;;;;;13.85;7.28;;;11.80;99.90;;;;;;5008683;28;219507;-70
2023/09/24 07:26:26;;;;;;;15.13;7.68;;;11.90;99.90;;;;;;5058053;28;20048;-71
2023/09/24 07:28:53;;;;;;;19.38;7.78;;;11.90;99.90;;;;;;5031388;28;20052;-71
2023/09/24 07:31:22;;;;;;;17.75;7.70;;;11.90;99.90;;;;;;5062857;28;20049;-71
2023/09/24 07:33:53;;;;;;;16.95;7.65;;;12.00;99.90;;;;;;5009451;28;134190;-71
2023/09/24 07:36:20;;;;;;;16.40;7.60;;;12.10;99.90;;;;;;5060160;28;20055;-71
2023/09/24 07:38:46;;;;;;;16.33;7.93;;;12.10;99.90;;;;;;5007650;28;122637;-71
2023/09/24 07:41:12;;;;;;;17.10;7.38;;;12.20;99.90;;;;;;5059547;28;20056;-71
2023/09/24 07:43:43;;;;;;;16.73;7.88;;;12.30;99.90;;;;;;5021957;28;20051;-70
2023/09/24 07:46:14;;;;;;;14.48;7.13;;;12.20;99.90;;;;;;5048874;28;20049;-70
2023/09/24 07:48:42;;;;;;;16.98;7.38;;;12.30;99.90;;;;;;5020837;28;47008;-71
2023/09/24 07:51:10;;;;;;;16.80;7.60;;;12.50;99.90;;;;;;5057631;28;20048;-69
2023/09/24 07:53:36;;;;;;;15.63;7.65;;;12.50;99.90;;;;;;4988180;28;140760;-69
2023/09/24 07:56:08;;;;;;;17.73;7.30;;;12.60;99.90;;;;;;5040999;28;20635;-70
2023/09/24 07:58:39;;;;;;;16.10;7.32;;;12.60;99.90;;;;;;5000785;28;169872;-70
2023/09/24 08:01:08;;;;;;;16.63;6.75;;;12.80;99.90;;;;;;5057737;28;20048;-70
2023/09/24 08:03:35;;;;;;;14.40;5.97;;;12.80;99.90;;;;;;5014107;28;218683;-69
2023/09/24 08:06:02;;;;;;;14.48;5.80;;;13.00;99.90;;;;;;5059489;28;20049;-69
2023/09/24 08:08:34;;;;;;;16.05;5.57;;;13.50;99.90;;;;;;4993845;28;234703;-70
2023/09/24 08:11:01;;;;;;;12.20;5.15;;;14.20;99.90;;;;;;5063812;28;20392;-69
2023/09/24 08:13:27;;;;;;;13.93;5.60;;;14.80;99.90;;;;;;5016631;28;133252;-69
2023/09/24 08:15:57;;;;;;;13.07;4.85;;;15.40;99.90;;;;;;5060874;28;20041;-69
2023/09/24 08:18:24;;;;;;;10.80;4.40;;;15.90;99.90;;;;;;5016514;28;70483;-69
2023/09/24 08:20:53;;;;;;;13.55;4.25;;;16.40;99.90;;;;;;5055449;28;20044;-69
2023/09/24 08:23:21;;;;;;;11.55;4.20;;;16.60;99.90;;;;;;5015208;28;59452;-69
2023/09/24 08:25:51;;;;;;;13.43;4.57;;;17.00;99.90;;;;;;5056148;28;20530;-69
2023/09/24 08:28:18;;;;;;;12.67;4.20;;;17.10;99.90;;;;;;5017366;28;207925;-70
2023/09/24 08:30:45;;;;;;;14.77;4.25;;;17.30;99.90;;;;;;5061402;28;20295;-69
2023/09/24 08:33:11;;;;;;;11.20;3.83;;;17.70;99.90;;;;;;5012696;28;103474;-69
2023/09/24 08:35:39;;;;;;;12.52;4.10;;;17.90;99.90;;;;;;5046919;28;20549;-69
2023/09/24 08:38:06;;;;;;;12.30;4.43;;;18.20;99.90;;;;;;5010230;28;259873;-69
2023/09/24 08:40:32;;;;;;;13.18;4.13;;;18.50;99.90;;;;;;5048401;28;20063;-69
2023/09/24 08:42:58;;;;;;;12.75;4.25;;;18.70;99.90;;;;;;5015070;28;166127;-69
2023/09/24 08:45:29;;;;;;;11.15;3.90;;;18.90;99.90;;;;;;5052913;28;20060;-70
2023/09/24 08:47:57;;;;;;;11.02;3.70;;;19.50;99.90;;;;;;5018880;28;101091;-70
2023/09/24 08:50:24;;;;;;;11.73;3.80;;;19.70;99.90;;;;;;5051169;28;20052;-69
2023/09/24 08:52:53;;;;;;;10.47;3.90;;;19.80;99.90;;;;;;4996768;28;232979;-69
2023/09/24 08:55:19;;;;;;;13.38;4.18;;;20.20;99.90;;;;;;5059868;28;20049;-69
2023/09/24 08:57:46;;;;;;;11.68;3.28;;;20.40;99.90;;;;;;5010921;28;179346;-69
2023/09/24 09:00:14;;;;;;;10.95;3.28;;;20.50;99.90;;;;;;5070200;28;20059;-69
2023/09/24 09:02:45;;;;;;;12.25;3.47;;;20.70;99.90;;;;;;5034809;28;20529;-69
2023/09/24 09:05:20;;;;;;;10.80;3.22;;;20.70;99.90;;;;;;5034567;28;20048;-70
2023/09/24 09:07:55;;;;;;;11.32;3.25;;;20.90;99.90;;;;;;5020665;28;20210;-69
2023/09/24 09:10:27;;;;;;;10.38;3.22;;;21.10;99.90;;;;;;5065761;28;20053;-70
2023/09/24 09:13:09;;;;;;;10.15;3.25;;;21.10;99.30;;;;;;5015623;28;120735;-71
2023/09/24 09:15:40;;;;;;;11.77;3.28;;;21.10;99.10;;;;;;5065819;28;20056;-70
2023/09/24 09:18:23;;;;;;;11.13;3.38;;;21.40;99.90;;;;;;5017649;28;198174;-69
2023/09/24 09:20:50;;;;;;;9.95;3.10;;;21.40;99.90;;;;;;5064629;28;20048;-69
2023/09/24 09:23:37;;;;;;;10.63;3.15;;;21.00;99.90;;;;;;5005937;28;135920;-69
2023/09/24 09:26:04;;;;;;;11.57;3.20;;;21.30;97.70;;;;;;5049233;28;20049;-69
2023/09/24 09:28:33;;;;;;;10.43;2.47;;;21.60;99.20;;;;;;5014025;28;67454;-69
2023/09/24 09:31:11;;;;;;;10.93;2.92;;;21.60;98.10;;;;;;5055289;28;20052;-69
2023/09/24 09:33:42;;;;;;;11.70;2.83;;;21.70;96.00;;;;;;5013424;28;57605;-69
2023/09/24 09:36:27;;;;;;;9.93;2.60;;;21.90;97.70;;;;;;5048979;28;20041;-72
2023/09/24 09:38:55;;;;;;;12.85;2.83;;;22.10;96.40;;;;;;5008220;28;20059;-69
2023/09/24 09:41:26;;;;;;;10.10;2.75;;;21.90;98.30;;;;;;5053876;28;20044;-70
2023/09/24 09:43:53;;;;;;;13.85;2.63;;;21.90;97.00;;;;;;5011708;28;128628;-70
2023/09/24 09:46:24;;;;;;;10.40;2.60;;;22.10;97.80;;;;;;5057846;28;20049;-71
2023/09/24 09:48:59;;;;;;;10.27;2.60;;;22.30;95.80;;;;;;5018206;28;96082;-71
2023/09/24 09:51:27;;;;;;;12.60;2.50;;;22.30;94.20;;;;;;5058827;28;20049;-70
2023/09/24 09:53:54;;;;;;;10.18;2.60;;;22.20;94.70;;;;;;5003023;28;251610;-71
2023/09/24 09:56:22;;;;;;;9.57;2.05;;;22.20;96.60;;;;;;5062687;28;20052;-71
2023/09/24 09:58:51;;;;;;;8.95;2.30;;;22.50;96.10;;;;;;5006341;28;142160;-71
2023/09/24 10:01:20;;;;;;;10.27;2.20;;;22.80;95.00;;;;;;5058322;28;20074;-71
2023/09/24 10:03:50;;;;;;;11.15;2.30;;;22.40;95.10;;;;;;5015545;28;113022;-71
2023/09/24 10:06:17;;;;;;;9.95;2.08;;;22.50;93.90;;;;;;5057567;28;20114;-70
2023/09/24 10:08:48;;;;;;;9.93;2.47;;;22.50;94.70;;;;;;5017503;28;256172;-70
2023/09/24 10:11:30;;;;;;;;;;;21.70;94.60;;;;;;5052968;28;20056;-72
2023/09/24 10:13:57;;;;;;;8.88;2.22;;;21.70;93.40;;;;;;5013495;28;223056;-70
2023/09/24 10:16:32;;;;;;;9.63;2.20;;;21.10;95.30;;;;;;5056180;28;20057;-71
2023/09/24 10:19:01;;;;;;;9.27;2.00;;;20.90;94.80;;;;;;4998590;28;48417;-71
2023/09/24 10:21:30;;;;;;;10.45;2.80;;;21.00;94.90;;;;;;5052171;28;20123;-71
2023/09/24 10:24:19;;;;;;;8.98;2.22;;;21.20;95.60;;;;;;5012662;28;20049;-72
2023/09/24 10:27:03;;;;;;;9.65;2.33;;;21.60;94.70;;;;;;5049112;28;20048;-70
2023/09/24 10:29:55;;;;;;;10.93;2.42;;;21.80;94.70;;;;;;5008857;28;198150;-69
2023/09/24 10:32:22;;;;;;;10.48;2.30;;;21.80;94.30;;;;;;5059106;28;20040;-71
2023/09/24 10:34:54;;;;;;;10.75;2.40;;;21.70;95.20;;;;;;4999866;28;78705;-71
2023/09/24 10:37:28;;;;;;;8.88;2.20;;;21.70;94.30;;;;;;5055887;28;20510;-71
2023/09/24 10:40:09;;;;;;;9.80;2.15;;;21.50;94.10;;;;;;5022759;28;65613;-70
2023/09/24 10:42:39;;;;;;;;;;;21.70;95.10;;;;;;5050266;28;20065;-71
2023/09/24 10:45:09;;;;;;;12.23;2.50;;;21.80;93.20;;;;;;5006604;28;19928;-70
2023/09/24 10:47:41;;;;;;;10.05;2.20;;;22.20;94.70;;;;;;5050500;28;20060;-70
2023/09/24 10:50:14;;;;;;;11.00;2.35;;;22.10;94.20;;;;;;5021458;28;20146;-70
2023/09/24 10:52:51;;;;;;;10.27;2.63;;;22.80;95.10;;;;;;5025783;28;20053;-70
2023/09/24 10:55:26;;;;;;;8.82;2.10;;;23.10;93.20;;;;;;5011040;28;99068;-70
2023/09/24 10:57:53;;;;;;;11.95;2.30;;;23.20;94.10;;;;;;5014130;28;138451;-71
2023/09/24 11:00:21;;;;;;;9.73;2.15;;;23.50;93.70;;;;;;5055226;28;20064;-72
2023/09/24 11:02:59;;;;;;;8.10;2.13;;;22.80;92.40;;;;;;5015325;28;172909;-71
2023/09/24 11:05:27;;;;;;;9.02;2.13;;;22.70;92.40;;;;;;5046190;28;20053;-72
2023/09/24 11:07:54;;;;;;;9.57;2.05;;;22.90;92.70;;;;;;5013020;28;91339;-70
2023/09/24 11:10:22;;;;;;;11.10;1.90;;;23.00;92.80;;;;;;5063929;28;20048;-66
2023/09/24 11:12:50;;;;;;;10.13;2.38;;;22.50;93.00;;;;;;5012960;28;160050;-69
2023/09/24 11:15:18;;;;;;;8.95;1.98;;;22.50;92.50;;;;;;5039811;28;20053;-71
2023/09/24 11:17:45;;;;;;;14.60;2.17;;;22.50;92.10;;;;;;5010042;28;211113;-70
2023/09/24 11:20:12;;;;;;;13.45;2.30;;;23.00;92.90;;;;;;5060053;28;20056;-72
2023/09/24 11:22:39;;;;;;;13.48;2.30;;;23.70;92.70;;;;;;5041517;28;20517;-70
2023/09/24 11:25:09;;;;;;;18.75;2.60;;;23.60;91.50;;;;;;5049910;28;20036;-71
2023/09/24 11:27:45;;;;;;;7.60;1.52;;;23.30;92.30;;;;;;5058952;28;20075;-71
2023/09/24 11:30:11;;;;;;;9.30;1.92;;;23.60;91.80;;;;;;4993436;28;20036;-71
2023/09/24 11:32:37;;;;;;;10.18;1.42;;;24.00;92.40;;;;;;5047469;28;20052;-70
2023/09/24 11:35:10;;;;;;;8.32;1.75;;;23.90;91.30;;;;;;5016008;28;162564;-71
2023/09/24 11:38:01;;;;;;;9.45;1.90;;;24.00;90.70;;;;;;5047150;28;20115;-70
2023/09/24 11:40:30;;;;;;;7.38;1.50;;;24.00;90.10;;;;;;5006483;28;20052;-72
2023/09/24 11:43:01;;;;;;;9.18;1.80;;;23.50;90.10;;;;;;5015115;28;121125;-70
2023/09/24 11:45:42;;;;;;;7.80;1.58;;;23.40;90.20;;;;;;5055056;28;20048;-71
2023/09/24 11:48:11;;;;;;;8.55;1.75;;;23.30;90.30;;;;;;5017209;28;195806;-71
2023/09/24 11:50:38;;;;;;;7.63;1.60;;;23.00;91.60;;;;;;5050514;28;20087;-72
2023/09/24 11:53:05;;;;;;;7.35;1.60;;;23.00;90.40;;;;;;5001021;28;121987;-71
2023/09/24 11:55:31;;;;;;;7.25;1.60;;;22.50;90.50;;;;;;5052420;28;20053;-70
2023/09/24 11:57:57;;;;;;;13.35;1.85;;;22.80;91.70;;;;;;5005531;28;194334;-70
2023/09/24 12:00:24;;;;;;;10.63;2.10;;;23.10;90.40;;;;;;5053483;28;20060;-70
2023/09/24 12:02:50;;;;;;;7.82;1.55;;;23.20;90.70;;;;;;5013129;28;193412;-71
2023/09/24 12:05:16;;;;;;;8.25;1.90;;;23.30;89.90;;;;;;5043204;28;20059;-71
2023/09/24 12:07:42;;;;;;;7.38;1.85;;;23.30;91.50;;;;;;5021373;28;202868;-70
2023/09/24 12:10:09;;;;;;;6.97;1.42;;;23.60;91.00;;;;;;5037122;28;20045;-70
2023/09/24 12:12:35;;;;;;;8.40;1.65;;;23.80;91.10;;;;;;5058696;28;20079;-71
2023/09/24 12:15:02;;;;;;;8.35;1.50;;;23.60;90.90;;;;;;4988407;28;50405;-71
2023/09/24 12:17:28;;;;;;;10.60;1.70;;;23.50;91.20;;;;;;5060573;28;20083;-72
2023/09/24 12:19:54;;;;;;;9.02;2.00;;;23.30;90.10;;;;;;5017220;28;109656;-70
2023/09/24 12:22:22;;;;;;;8.55;1.67;;;22.90;91.30;;;;;;5054704;28;20060;-72
2023/09/24 12:24:48;;;;;;;8.32;1.75;;;22.80;90.50;;;;;;5007382;28;239516;-70
2023/09/24 12:27:15;;;;;;;8.93;1.80;;;23.00;91.20;;;;;;5057080;28;20056;-70
2023/09/24 12:29:41;;;;;;;9.20;1.77;;;23.40;91.10;;;;;;4991197;28;206723;-71
2023/09/24 12:32:07;;;;;;;8.93;1.50;;;23.80;91.10;;;;;;5054300;28;20510;-74
2023/09/24 12:34:33;;;;;;;12.48;1.70;;;23.90;91.10;;;;;;4990460;28;154818;-75
2023/09/24 12:36:59;;;;;;;7.53;1.42;;;24.20;90.90;;;;;;5059571;28;20061;-74
2023/09/24 12:39:25;;;;;;;7.72;1.70;;;24.30;90.30;;;;;;5015298;28;186836;-73
2023/09/24 12:41:52;;;;;;;8.20;1.60;;;24.30;90.90;;;;;;5062815;28;20053;-72
2023/09/24 12:44:18;;;;;;;8.93;1.48;;;24.00;89.70;;;;;;5011791;28;180342;-72